Estación Meteorológica Peña el Pijo (Robertgarden) [ 01/23/19 03:45:57 CET ]

Fecha Hora Presion(HPa) Temp (°C) Humedad % Rocio (°C) Viento ( m/s) Direccion Lluvia 1Hora(mm) Lluvia 24H(mm) LLuvia Total(mm)
2018-Nov-25 01:01:54 1004.200 2.9 83 0.3         151.77
2018-Nov-25 02:05:11 1003.800 6.6 83 3.9         151.77
2018-Nov-25 03:01:49 1003.500 7.2 80 4.0 2.1 NNW     151.77
2018-Nov-25 04:01:51 1002.400 7.3 78 3.7 2.5 N     151.77
2018-Nov-25 05:01:46 1001.900 8.1 78 4.5 0.5 WNW     151.77
2018-Nov-25 06:01:46 1002.200 8.2 78 4.6         151.77
2018-Nov-25 07:01:51 1001.600 8.3 79 4.9         151.77
2018-Nov-25 08:01:50 1001.900 9.8 78 6.1         151.77
2018-Nov-25 09:01:49 1001.900 9.8 78 6.1 2.4 WNW     151.77
2018-Nov-25 10:01:45 1002.200 11.3 75 7.0 5.1 N     151.77
2018-Nov-25 11:01:41 1003.100 12.1 74 7.6 1.6 N     151.77
2018-Nov-25 12:01:47 1002.700 12.6 74 8.1         151.77
2018-Nov-25 13:01:43 1002.700 11.6 74 7.1 2.1 NW     151.77
2018-Nov-25 14:01:48 1002.100 12.8 71 7.7         151.77
2018-Nov-25 15:01:53 1002.200 11.6 69 6.1         151.77
2018-Nov-25 16:02:02 1001.400 11.2 70 6.0 0.7 WNW     151.77
2018-Nov-25 17:01:44 1001.000 11.5 72 6.6 0.6 WNW     151.77
2018-Nov-25 18:01:46 1000.900 10.8 75 6.5 1.9 N     151.77
2018-Nov-25 19:01:35 1001.300 10.6 72 5.8         151.77
2018-Nov-25 20:01:41 1001.100 10.8 71 5.8         151.77
2018-Nov-25 21:02:05 1000.800 10.8 72 6.0 1.2 WNW     151.77
2018-Nov-25 22:01:54 1000.200 10.9 68 5.2 0.8 NW     151.77
2018-Nov-25 23:02:04 999.600 10.5 72 5.7         151.77

Temperatura Máxima:12°    Temperatura Mínima:
Presión Máxima:1004.200 Hpa    Presión Mínima:999.600 Hpa


Volver